sensor_id;sensor_type;location;lat;lon;timestamp;P1;durP1;ratioP1;P2;durP2;ratioP2
16822;SDS011;8528;49.976;11.858;2023-02-21T00:02:24;6.70;;;3.73;;
16822;SDS011;8528;49.976;11.858;2023-02-21T00:05:10;5.47;;;3.63;;
16822;SDS011;8528;49.976;11.858;2023-02-21T00:07:55;5.60;;;3.83;;
16822;SDS011;8528;49.976;11.858;2023-02-21T00:10:41;8.87;;;4.17;;
16822;SDS011;8528;49.976;11.858;2023-02-21T00:13:27;7.53;;;4.20;;
16822;SDS011;8528;49.976;11.858;2023-02-21T00:16:13;6.40;;;3.40;;
16822;SDS011;8528;49.976;11.858;2023-02-21T00:19:03;15.60;;;4.23;;
16822;SDS011;8528;49.976;11.858;2023-02-21T00:21:48;8.23;;;3.57;;
16822;SDS011;8528;49.976;11.858;2023-02-21T00:24:34;5.57;;;3.43;;
16822;SDS011;8528;49.976;11.858;2023-02-21T00:27:20;7.00;;;3.50;;
16822;SDS011;8528;49.976;11.858;2023-02-21T00:30:05;7.03;;;3.73;;
16822;SDS011;8528;49.976;11.858;2023-02-21T00:32:51;8.33;;;4.60;;
16822;SDS011;8528;49.976;11.858;2023-02-21T00:35:37;7.83;;;4.93;;
16822;SDS011;8528;49.976;11.858;2023-02-21T00:38:22;5.53;;;3.90;;
16822;SDS011;8528;49.976;11.858;2023-02-21T00:41:08;7.47;;;3.83;;
16822;SDS011;8528;49.976;11.858;2023-02-21T00:43:53;6.53;;;4.00;;
16822;SDS011;8528;49.976;11.858;2023-02-21T00:46:39;11.57;;;4.67;;
16822;SDS011;8528;49.976;11.858;2023-02-21T00:49:25;7.40;;;4.03;;
16822;SDS011;8528;49.976;11.858;2023-02-21T00:52:10;11.47;;;4.63;;
16822;SDS011;8528;49.976;11.858;2023-02-21T00:54:56;10.33;;;4.57;;
16822;SDS011;8528;49.976;11.858;2023-02-21T00:57:42;6.47;;;4.07;;
16822;SDS011;8528;49.976;11.858;2023-02-21T01:00:27;8.07;;;4.30;;
16822;SDS011;8528;49.976;11.858;2023-02-21T01:03:13;10.50;;;4.53;;
16822;SDS011;8528;49.976;11.858;2023-02-21T01:05:58;6.40;;;4.47;;
16822;SDS011;8528;49.976;11.858;2023-02-21T01:08:44;6.90;;;4.40;;
16822;SDS011;8528;49.976;11.858;2023-02-21T01:11:31;7.40;;;4.40;;
16822;SDS011;8528;49.976;11.858;2023-02-21T01:14:17;10.77;;;5.17;;
16822;SDS011;8528;49.976;11.858;2023-02-21T01:17:03;8.90;;;4.43;;
16822;SDS011;8528;49.976;11.858;2023-02-21T01:19:48;6.10;;;4.10;;
16822;SDS011;8528;49.976;11.858;2023-02-21T01:22:33;6.30;;;3.97;;
16822;SDS011;8528;49.976;11.858;2023-02-21T01:25:19;6.23;;;3.83;;
16822;SDS011;8528;49.976;11.858;2023-02-21T01:28:05;8.00;;;4.17;;
16822;SDS011;8528;49.976;11.858;2023-02-21T01:30:50;7.80;;;3.90;;
16822;SDS011;8528;49.976;11.858;2023-02-21T01:33:39;7.23;;;3.60;;
16822;SDS011;8528;49.976;11.858;2023-02-21T01:36:25;6.57;;;3.47;;
16822;SDS011;8528;49.976;11.858;2023-02-21T01:39:11;4.23;;;3.57;;
16822;SDS011;8528;49.976;11.858;2023-02-21T01:41:57;5.70;;;3.63;;
16822;SDS011;8528;49.976;11.858;2023-02-21T01:44:43;5.17;;;3.57;;
16822;SDS011;8528;49.976;11.858;2023-02-21T01:47:29;5.90;;;3.63;;
16822;SDS011;8528;49.976;11.858;2023-02-21T01:50:19;6.10;;;3.33;;
16822;SDS011;8528;49.976;11.858;2023-02-21T01:56:12;5.70;;;3.40;;
16822;SDS011;8528;49.976;11.858;2023-02-21T01:58:58;5.93;;;3.47;;
16822;SDS011;8528;49.976;11.858;2023-02-21T02:04:36;5.30;;;3.23;;
16822;SDS011;8528;49.976;11.858;2023-02-21T02:07:21;6.50;;;4.00;;
16822;SDS011;8528;49.976;11.858;2023-02-21T02:10:07;6.97;;;4.30;;
16822;SDS011;8528;49.976;11.858;2023-02-21T02:13:13;5.63;;;3.70;;
16822;SDS011;8528;49.976;11.858;2023-02-21T02:16:09;6.83;;;3.80;;
16822;SDS011;8528;49.976;11.858;2023-02-21T02:27:10;9.20;;;4.20;;
16822;SDS011;8528;49.976;11.858;2023-02-21T02:41:02;5.73;;;4.03;;
16822;SDS011;8528;49.976;11.858;2023-02-21T02:43:40;12.90;;;4.17;;
16822;SDS011;8528;49.976;11.858;2023-02-21T02:46:48;7.37;;;4.50;;
16822;SDS011;8528;49.976;11.858;2023-02-21T02:49:17;8.40;;;4.23;;
16822;SDS011;8528;49.976;11.858;2023-02-21T02:51:47;7.33;;;4.40;;
16822;SDS011;8528;49.976;11.858;2023-02-21T02:54:14;7.97;;;4.67;;
16822;SDS011;8528;49.976;11.858;2023-02-21T02:56:42;7.73;;;4.73;;
16822;SDS011;8528;49.976;11.858;2023-02-21T02:59:10;6.63;;;4.73;;
16822;SDS011;8528;49.976;11.858;2023-02-21T03:01:59;7.93;;;4.80;;
16822;SDS011;8528;49.976;11.858;2023-02-21T03:13:17;7.23;;;4.37;;
16822;SDS011;8528;49.976;11.858;2023-02-21T03:16:06;8.10;;;4.33;;
16822;SDS011;8528;49.976;11.858;2023-02-21T03:18:46;12.17;;;4.73;;
16822;SDS011;8528;49.976;11.858;2023-02-21T03:21:18;7.50;;;4.17;;
16822;SDS011;8528;49.976;11.858;2023-02-21T03:23:49;8.47;;;4.03;;
16822;SDS011;8528;49.976;11.858;2023-02-21T03:26:18;7.50;;;4.87;;
16822;SDS011;8528;49.976;11.858;2023-02-21T03:28:45;7.47;;;4.40;;
16822;SDS011;8528;49.976;11.858;2023-02-21T03:31:13;10.60;;;4.60;;
16822;SDS011;8528;49.976;11.858;2023-02-21T03:33:43;8.00;;;4.73;;
16822;SDS011;8528;49.976;11.858;2023-02-21T03:36:10;6.97;;;4.67;;
16822;SDS011;8528;49.976;11.858;2023-02-21T03:38:38;7.33;;;4.77;;
16822;SDS011;8528;49.976;11.858;2023-02-21T03:41:05;6.90;;;4.43;;
16822;SDS011;8528;49.976;11.858;2023-02-21T03:43:33;9.77;;;5.40;;
16822;SDS011;8528;49.976;11.858;2023-02-21T03:46:00;7.50;;;4.40;;
16822;SDS011;8528;49.976;11.858;2023-02-21T03:48:27;6.97;;;4.70;;
16822;SDS011;8528;49.976;11.858;2023-02-21T03:50:58;6.47;;;4.10;;
16822;SDS011;8528;49.976;11.858;2023-02-21T03:53:25;5.63;;;3.97;;
16822;SDS011;8528;49.976;11.858;2023-02-21T03:55:51;8.03;;;4.90;;
16822;SDS011;8528;49.976;11.858;2023-02-21T03:58:18;6.93;;;4.43;;
16822;SDS011;8528;49.976;11.858;2023-02-21T04:00:45;9.43;;;4.83;;
16822;SDS011;8528;49.976;11.858;2023-02-21T04:03:12;10.10;;;4.53;;
16822;SDS011;8528;49.976;11.858;2023-02-21T04:05:39;7.87;;;4.70;;
16822;SDS011;8528;49.976;11.858;2023-02-21T04:08:06;9.17;;;5.20;;
16822;SDS011;8528;49.976;11.858;2023-02-21T04:10:32;8.23;;;4.73;;
16822;SDS011;8528;49.976;11.858;2023-02-21T04:13:12;7.00;;;4.70;;
16822;SDS011;8528;49.976;11.858;2023-02-21T04:15:39;10.87;;;4.60;;
16822;SDS011;8528;49.976;11.858;2023-02-21T04:18:05;8.13;;;5.30;;
16822;SDS011;8528;49.976;11.858;2023-02-21T04:20:32;7.83;;;4.97;;
16822;SDS011;8528;49.976;11.858;2023-02-21T04:22:59;12.30;;;5.40;;
16822;SDS011;8528;49.976;11.858;2023-02-21T04:25:28;9.17;;;4.60;;
16822;SDS011;8528;49.976;11.858;2023-02-21T04:27:55;8.23;;;4.63;;
16822;SDS011;8528;49.976;11.858;2023-02-21T04:30:22;8.93;;;4.73;;
16822;SDS011;8528;49.976;11.858;2023-02-21T04:32:50;8.47;;;4.57;;
16822;SDS011;8528;49.976;11.858;2023-02-21T04:35:16;5.83;;;4.50;;
16822;SDS011;8528;49.976;11.858;2023-02-21T04:37:44;7.63;;;4.30;;
16822;SDS011;8528;49.976;11.858;2023-02-21T04:40:11;9.10;;;4.80;;
16822;SDS011;8528;49.976;11.858;2023-02-21T04:42:38;6.57;;;4.00;;
16822;SDS011;8528;49.976;11.858;2023-02-21T04:45:05;6.27;;;4.13;;
16822;SDS011;8528;49.976;11.858;2023-02-21T04:47:32;7.17;;;4.83;;
16822;SDS011;8528;49.976;11.858;2023-02-21T04:49:58;6.40;;;4.43;;
16822;SDS011;8528;49.976;11.858;2023-02-21T04:52:25;8.10;;;4.67;;
16822;SDS011;8528;49.976;11.858;2023-02-21T04:54:52;7.53;;;4.77;;
16822;SDS011;8528;49.976;11.858;2023-02-21T04:57:19;8.97;;;4.43;;
16822;SDS011;8528;49.976;11.858;2023-02-21T04:59:46;7.50;;;4.10;;
16822;SDS011;8528;49.976;11.858;2023-02-21T05:02:13;7.17;;;4.43;;
16822;SDS011;8528;49.976;11.858;2023-02-21T05:04:39;7.60;;;4.67;;
16822;SDS011;8528;49.976;11.858;2023-02-21T05:07:08;5.80;;;3.97;;
16822;SDS011;8528;49.976;11.858;2023-02-21T05:09:35;6.83;;;4.27;;
16822;SDS011;8528;49.976;11.858;2023-02-21T05:12:01;6.40;;;4.30;;
16822;SDS011;8528;49.976;11.858;2023-02-21T05:14:28;6.43;;;4.33;;
16822;SDS011;8528;49.976;11.858;2023-02-21T05:16:55;5.67;;;4.10;;
16822;SDS011;8528;49.976;11.858;2023-02-21T05:19:22;6.53;;;4.23;;
16822;SDS011;8528;49.976;11.858;2023-02-21T05:21:55;7.10;;;4.10;;
16822;SDS011;8528;49.976;11.858;2023-02-21T05:24:23;5.90;;;3.63;;
16822;SDS011;8528;49.976;11.858;2023-02-21T05:26:51;6.40;;;3.90;;
16822;SDS011;8528;49.976;11.858;2023-02-21T05:29:18;7.20;;;4.10;;
16822;SDS011;8528;49.976;11.858;2023-02-21T05:31:45;6.47;;;4.47;;
16822;SDS011;8528;49.976;11.858;2023-02-21T05:34:13;6.67;;;3.93;;
16822;SDS011;8528;49.976;11.858;2023-02-21T05:36:40;6.87;;;3.77;;
16822;SDS011;8528;49.976;11.858;2023-02-21T05:39:08;6.07;;;3.97;;
16822;SDS011;8528;49.976;11.858;2023-02-21T05:41:35;6.10;;;4.10;;
16822;SDS011;8528;49.976;11.858;2023-02-21T05:44:02;7.70;;;3.70;;
16822;SDS011;8528;49.976;11.858;2023-02-21T05:46:33;6.03;;;4.00;;
16822;SDS011;8528;49.976;11.858;2023-02-21T05:49:01;7.93;;;3.97;;
16822;SDS011;8528;49.976;11.858;2023-02-21T05:51:35;7.80;;;4.03;;
16822;SDS011;8528;49.976;11.858;2023-02-21T05:54:05;6.90;;;3.53;;
16822;SDS011;8528;49.976;11.858;2023-02-21T05:56:36;6.93;;;4.37;;
16822;SDS011;8528;49.976;11.858;2023-02-21T05:59:04;4.97;;;3.60;;
16822;SDS011;8528;49.976;11.858;2023-02-21T06:01:32;6.23;;;3.93;;
16822;SDS011;8528;49.976;11.858;2023-02-21T06:03:58;7.43;;;3.90;;
16822;SDS011;8528;49.976;11.858;2023-02-21T06:06:25;4.83;;;3.50;;
16822;SDS011;8528;49.976;11.858;2023-02-21T06:08:52;7.40;;;4.03;;
16822;SDS011;8528;49.976;11.858;2023-02-21T06:11:23;5.50;;;3.80;;
16822;SDS011;8528;49.976;11.858;2023-02-21T06:13:53;6.60;;;3.90;;
16822;SDS011;8528;49.976;11.858;2023-02-21T06:16:21;7.30;;;4.17;;
16822;SDS011;8528;49.976;11.858;2023-02-21T06:18:48;4.83;;;3.70;;
16822;SDS011;8528;49.976;11.858;2023-02-21T06:21:16;7.67;;;4.47;;
16822;SDS011;8528;49.976;11.858;2023-02-21T06:23:44;7.17;;;4.30;;
16822;SDS011;8528;49.976;11.858;2023-02-21T06:26:11;5.07;;;3.77;;
16822;SDS011;8528;49.976;11.858;2023-02-21T06:28:38;8.60;;;4.27;;
16822;SDS011;8528;49.976;11.858;2023-02-21T06:31:05;6.93;;;4.50;;
16822;SDS011;8528;49.976;11.858;2023-02-21T06:33:32;7.60;;;4.23;;
16822;SDS011;8528;49.976;11.858;2023-02-21T06:36:06;5.90;;;4.00;;
16822;SDS011;8528;49.976;11.858;2023-02-21T06:38:37;7.73;;;4.50;;
16822;SDS011;8528;49.976;11.858;2023-02-21T06:41:04;10.07;;;4.47;;
16822;SDS011;8528;49.976;11.858;2023-02-21T06:43:32;7.03;;;4.87;;
16822;SDS011;8528;49.976;11.858;2023-02-21T06:46:02;10.43;;;5.03;;
16822;SDS011;8528;49.976;11.858;2023-02-21T06:48:30;7.87;;;5.20;;
16822;SDS011;8528;49.976;11.858;2023-02-21T06:50:56;9.20;;;5.50;;
16822;SDS011;8528;49.976;11.858;2023-02-21T06:53:23;7.73;;;4.50;;
16822;SDS011;8528;49.976;11.858;2023-02-21T06:55:50;9.83;;;5.50;;
16822;SDS011;8528;49.976;11.858;2023-02-21T06:58:17;9.50;;;4.93;;
16822;SDS011;8528;49.976;11.858;2023-02-21T07:00:44;8.13;;;5.20;;
16822;SDS011;8528;49.976;11.858;2023-02-21T07:03:11;6.67;;;4.43;;
16822;SDS011;8528;49.976;11.858;2023-02-21T07:05:37;8.70;;;4.90;;
16822;SDS011;8528;49.976;11.858;2023-02-21T07:08:04;6.40;;;4.67;;
16822;SDS011;8528;49.976;11.858;2023-02-21T07:10:31;6.87;;;4.90;;
16822;SDS011;8528;49.976;11.858;2023-02-21T07:12:58;7.67;;;5.03;;
16822;SDS011;8528;49.976;11.858;2023-02-21T07:15:24;7.27;;;4.80;;
16822;SDS011;8528;49.976;11.858;2023-02-21T07:17:52;8.80;;;4.90;;
16822;SDS011;8528;49.976;11.858;2023-02-21T07:20:19;7.70;;;5.00;;
16822;SDS011;8528;49.976;11.858;2023-02-21T07:22:45;10.27;;;6.10;;
16822;SDS011;8528;49.976;11.858;2023-02-21T07:25:13;8.87;;;4.63;;
16822;SDS011;8528;49.976;11.858;2023-02-21T07:27:41;8.73;;;5.67;;
16822;SDS011;8528;49.976;11.858;2023-02-21T07:30:09;7.80;;;4.93;;
16822;SDS011;8528;49.976;11.858;2023-02-21T07:32:37;9.90;;;5.03;;
16822;SDS011;8528;49.976;11.858;2023-02-21T07:35:03;11.17;;;5.70;;
16822;SDS011;8528;49.976;11.858;2023-02-21T07:37:30;8.17;;;5.40;;
16822;SDS011;8528;49.976;11.858;2023-02-21T07:39:58;9.77;;;5.23;;
16822;SDS011;8528;49.976;11.858;2023-02-21T07:42:24;8.93;;;4.80;;
16822;SDS011;8528;49.976;11.858;2023-02-21T07:44:54;8.67;;;5.00;;
16822;SDS011;8528;49.976;11.858;2023-02-21T07:47:26;8.33;;;4.80;;
16822;SDS011;8528;49.976;11.858;2023-02-21T07:49:53;7.00;;;4.80;;
16822;SDS011;8528;49.976;11.858;2023-02-21T07:52:20;8.33;;;5.23;;
16822;SDS011;8528;49.976;11.858;2023-02-21T07:54:48;7.43;;;4.77;;
16822;SDS011;8528;49.976;11.858;2023-02-21T07:57:15;7.30;;;4.73;;
16822;SDS011;8528;49.976;11.858;2023-02-21T07:59:42;7.87;;;4.43;;
16822;SDS011;8528;49.976;11.858;2023-02-21T08:02:10;5.70;;;3.90;;
16822;SDS011;8528;49.976;11.858;2023-02-21T08:04:37;8.27;;;4.67;;
16822;SDS011;8528;49.976;11.858;2023-02-21T08:07:05;7.47;;;4.43;;
16822;SDS011;8528;49.976;11.858;2023-02-21T08:09:32;9.57;;;5.60;;
16822;SDS011;8528;49.976;11.858;2023-02-21T08:11:59;7.43;;;4.30;;
16822;SDS011;8528;49.976;11.858;2023-02-21T08:14:26;5.50;;;4.10;;
16822;SDS011;8528;49.976;11.858;2023-02-21T08:16:53;6.13;;;3.67;;
16822;SDS011;8528;49.976;11.858;2023-02-21T08:19:20;4.43;;;3.57;;
16822;SDS011;8528;49.976;11.858;2023-02-21T08:21:47;4.80;;;3.70;;
16822;SDS011;8528;49.976;11.858;2023-02-21T08:24:15;7.87;;;3.80;;
16822;SDS011;8528;49.976;11.858;2023-02-21T08:26:43;5.33;;;3.90;;
16822;SDS011;8528;49.976;11.858;2023-02-21T08:29:11;4.37;;;3.87;;
16822;SDS011;8528;49.976;11.858;2023-02-21T08:31:39;5.57;;;4.40;;
16822;SDS011;8528;49.976;11.858;2023-02-21T08:34:06;5.47;;;3.93;;
16822;SDS011;8528;49.976;11.858;2023-02-21T08:36:35;6.33;;;4.40;;
16822;SDS011;8528;49.976;11.858;2023-02-21T08:39:03;6.30;;;4.33;;
16822;SDS011;8528;49.976;11.858;2023-02-21T08:41:38;7.60;;;4.77;;
16822;SDS011;8528;49.976;11.858;2023-02-21T08:44:10;15.30;;;4.53;;
16822;SDS011;8528;49.976;11.858;2023-02-21T08:46:39;5.67;;;4.20;;
16822;SDS011;8528;49.976;11.858;2023-02-21T08:49:06;5.87;;;4.60;;
16822;SDS011;8528;49.976;11.858;2023-02-21T08:51:33;5.83;;;4.20;;
16822;SDS011;8528;49.976;11.858;2023-02-21T08:54:01;5.73;;;4.47;;
16822;SDS011;8528;49.976;11.858;2023-02-21T08:56:28;5.27;;;4.43;;
16822;SDS011;8528;49.976;11.858;2023-02-21T08:58:56;6.23;;;4.77;;
16822;SDS011;8528;49.976;11.858;2023-02-21T09:01:23;6.20;;;4.30;;
16822;SDS011;8528;49.976;11.858;2023-02-21T09:04:02;7.53;;;5.07;;
16822;SDS011;8528;49.976;11.858;2023-02-21T09:06:30;8.30;;;5.87;;
16822;SDS011;8528;49.976;11.858;2023-02-21T09:08:57;7.37;;;4.93;;
16822;SDS011;8528;49.976;11.858;2023-02-21T09:11:24;6.73;;;5.00;;
16822;SDS011;8528;49.976;11.858;2023-02-21T09:13:51;7.60;;;4.87;;
16822;SDS011;8528;49.976;11.858;2023-02-21T09:16:20;7.00;;;5.30;;
16822;SDS011;8528;49.976;11.858;2023-02-21T09:18:54;6.27;;;4.80;;
16822;SDS011;8528;49.976;11.858;2023-02-21T09:21:23;7.37;;;4.93;;
16822;SDS011;8528;49.976;11.858;2023-02-21T09:23:53;7.33;;;4.90;;
16822;SDS011;8528;49.976;11.858;2023-02-21T09:26:21;6.60;;;4.67;;
16822;SDS011;8528;49.976;11.858;2023-02-21T09:28:55;5.60;;;4.30;;
16822;SDS011;8528;49.976;11.858;2023-02-21T09:31:22;6.60;;;4.20;;
16822;SDS011;8528;49.976;11.858;2023-02-21T09:33:49;6.03;;;4.63;;
16822;SDS011;8528;49.976;11.858;2023-02-21T09:36:16;5.87;;;4.63;;
16822;SDS011;8528;49.976;11.858;2023-02-21T09:38:49;7.83;;;4.40;;
16822;SDS011;8528;49.976;11.858;2023-02-21T09:41:16;6.07;;;4.60;;
16822;SDS011;8528;49.976;11.858;2023-02-21T09:43:45;6.30;;;4.57;;
16822;SDS011;8528;49.976;11.858;2023-02-21T09:46:17;6.57;;;4.27;;
16822;SDS011;8528;49.976;11.858;2023-02-21T09:48:50;5.17;;;3.97;;
16822;SDS011;8528;49.976;11.858;2023-02-21T09:51:18;5.83;;;4.33;;
16822;SDS011;8528;49.976;11.858;2023-02-21T09:53:46;7.90;;;4.60;;
16822;SDS011;8528;49.976;11.858;2023-02-21T09:58:50;7.43;;;4.27;;
16822;SDS011;8528;49.976;11.858;2023-02-21T10:12:25;6.47;;;3.90;;
16822;SDS011;8528;49.976;11.858;2023-02-21T10:20:40;6.87;;;4.43;;
16822;SDS011;8528;49.976;11.858;2023-02-21T10:23:18;5.37;;;4.43;;
16822;SDS011;8528;49.976;11.858;2023-02-21T10:25:50;7.07;;;4.20;;
16822;SDS011;8528;49.976;11.858;2023-02-21T10:28:22;6.57;;;4.33;;
16822;SDS011;8528;49.976;11.858;2023-02-21T10:30:51;6.70;;;4.30;;
16822;SDS011;8528;49.976;11.858;2023-02-21T10:33:39;6.93;;;4.60;;
16822;SDS011;8528;49.976;11.858;2023-02-21T10:36:10;6.27;;;4.70;;
16822;SDS011;8528;49.976;11.858;2023-02-21T10:38:38;6.40;;;4.50;;
16822;SDS011;8528;49.976;11.858;2023-02-21T10:41:10;6.67;;;4.23;;
16822;SDS011;8528;49.976;11.858;2023-02-21T10:43:45;9.40;;;5.40;;
16822;SDS011;8528;49.976;11.858;2023-02-21T10:46:26;9.37;;;5.03;;
16822;SDS011;8528;49.976;11.858;2023-02-21T10:49:24;7.60;;;4.90;;
16822;SDS011;8528;49.976;11.858;2023-02-21T10:52:10;5.77;;;4.40;;
16822;SDS011;8528;49.976;11.858;2023-02-21T10:54:38;6.10;;;4.40;;
16822;SDS011;8528;49.976;11.858;2023-02-21T10:57:06;9.47;;;4.47;;
16822;SDS011;8528;49.976;11.858;2023-02-21T10:59:38;5.20;;;4.33;;
16822;SDS011;8528;49.976;11.858;2023-02-21T11:02:23;7.67;;;4.83;;
16822;SDS011;8528;49.976;11.858;2023-02-21T11:04:54;7.23;;;5.13;;
16822;SDS011;8528;49.976;11.858;2023-02-21T11:07:32;8.03;;;4.20;;
16822;SDS011;8528;49.976;11.858;2023-02-21T11:10:00;5.80;;;4.37;;
16822;SDS011;8528;49.976;11.858;2023-02-21T11:12:27;5.17;;;4.30;;
16822;SDS011;8528;49.976;11.858;2023-02-21T11:17:27;4.80;;;4.13;;
16822;SDS011;8528;49.976;11.858;2023-02-21T11:20:04;5.70;;;4.13;;
16822;SDS011;8528;49.976;11.858;2023-02-21T11:22:44;7.13;;;4.70;;
16822;SDS011;8528;49.976;11.858;2023-02-21T11:25:31;5.57;;;4.07;;
16822;SDS011;8528;49.976;11.858;2023-02-21T11:28:05;6.73;;;4.60;;
16822;SDS011;8528;49.976;11.858;2023-02-21T11:30:36;6.60;;;4.67;;
16822;SDS011;8528;49.976;11.858;2023-02-21T11:33:05;5.20;;;4.23;;
16822;SDS011;8528;49.976;11.858;2023-02-21T11:35:34;4.80;;;3.77;;
16822;SDS011;8528;49.976;11.858;2023-02-21T11:38:08;5.17;;;4.03;;
16822;SDS011;8528;49.976;11.858;2023-02-21T11:40:56;4.43;;;4.00;;
16822;SDS011;8528;49.976;11.858;2023-02-21T11:43:24;5.87;;;3.90;;
16822;SDS011;8528;49.976;11.858;2023-02-21T11:48:58;6.77;;;3.90;;
16822;SDS011;8528;49.976;11.858;2023-02-21T11:51:32;4.77;;;3.67;;
16822;SDS011;8528;49.976;11.858;2023-02-21T11:54:14;5.47;;;3.73;;
16822;SDS011;8528;49.976;11.858;2023-02-21T11:56:45;4.87;;;3.40;;
16822;SDS011;8528;49.976;11.858;2023-02-21T12:05:05;3.73;;;3.33;;
16822;SDS011;8528;49.976;11.858;2023-02-21T12:16:52;5.57;;;3.43;;
16822;SDS011;8528;49.976;11.858;2023-02-21T12:29:08;4.23;;;3.10;;
16822;SDS011;8528;49.976;11.858;2023-02-21T12:32:34;3.60;;;2.73;;
16822;SDS011;8528;49.976;11.858;2023-02-21T12:34:57;4.67;;;3.30;;
16822;SDS011;8528;49.976;11.858;2023-02-21T12:37:47;4.93;;;3.30;;
16822;SDS011;8528;49.976;11.858;2023-02-21T12:40:26;5.40;;;3.63;;
16822;SDS011;8528;49.976;11.858;2023-02-21T12:43:26;4.67;;;3.37;;
16822;SDS011;8528;49.976;11.858;2023-02-21T12:48:59;5.17;;;3.17;;
16822;SDS011;8528;49.976;11.858;2023-02-21T12:51:37;4.37;;;3.30;;
16822;SDS011;8528;49.976;11.858;2023-02-21T12:54:09;5.00;;;2.73;;
16822;SDS011;8528;49.976;11.858;2023-02-21T12:56:59;4.00;;;3.23;;
16822;SDS011;8528;49.976;11.858;2023-02-21T12:59:42;5.33;;;3.67;;
16822;SDS011;8528;49.976;11.858;2023-02-21T13:08:19;8.13;;;5.80;;
16822;SDS011;8528;49.976;11.858;2023-02-21T13:13:35;5.03;;;3.40;;
16822;SDS011;8528;49.976;11.858;2023-02-21T13:16:03;4.93;;;3.43;;
16822;SDS011;8528;49.976;11.858;2023-02-21T13:18:37;5.97;;;3.83;;
16822;SDS011;8528;49.976;11.858;2023-02-21T13:21:20;5.57;;;3.40;;
16822;SDS011;8528;49.976;11.858;2023-02-21T13:29:58;4.70;;;3.50;;
16822;SDS011;8528;49.976;11.858;2023-02-21T13:32:49;5.73;;;3.30;;
16822;SDS011;8528;49.976;11.858;2023-02-21T13:38:28;3.33;;;3.03;;
16822;SDS011;8528;49.976;11.858;2023-02-21T13:41:07;5.47;;;3.23;;
16822;SDS011;8528;49.976;11.858;2023-02-21T13:43:36;4.07;;;3.33;;
16822;SDS011;8528;49.976;11.858;2023-02-21T13:47:14;6.13;;;2.97;;
16822;SDS011;8528;49.976;11.858;2023-02-21T13:57:39;5.13;;;3.63;;
16822;SDS011;8528;49.976;11.858;2023-02-21T14:13:37;3.60;;;2.93;;
16822;SDS011;8528;49.976;11.858;2023-02-21T14:21:21;4.87;;;3.40;;
16822;SDS011;8528;49.976;11.858;2023-02-21T14:29:13;6.57;;;3.53;;
16822;SDS011;8528;49.976;11.858;2023-02-21T14:34:31;4.60;;;3.27;;
16822;SDS011;8528;49.976;11.858;2023-02-21T14:36:59;4.50;;;2.93;;
16822;SDS011;8528;49.976;11.858;2023-02-21T14:39:32;4.67;;;2.77;;
16822;SDS011;8528;49.976;11.858;2023-02-21T14:42:05;5.30;;;3.13;;
16822;SDS011;8528;49.976;11.858;2023-02-21T14:47:59;3.57;;;2.73;;
16822;SDS011;8528;49.976;11.858;2023-02-21T14:55:54;5.07;;;3.67;;
16822;SDS011;8528;49.976;11.858;2023-02-21T15:07:17;4.87;;;3.33;;
16822;SDS011;8528;49.976;11.858;2023-02-21T15:12:49;4.37;;;3.27;;
16822;SDS011;8528;49.976;11.858;2023-02-21T15:15:23;6.33;;;3.47;;
16822;SDS011;8528;49.976;11.858;2023-02-21T15:18:00;5.53;;;3.20;;
16822;SDS011;8528;49.976;11.858;2023-02-21T15:20:39;6.90;;;4.03;;
16822;SDS011;8528;49.976;11.858;2023-02-21T15:25:41;5.73;;;3.67;;
16822;SDS011;8528;49.976;11.858;2023-02-21T15:31:06;6.07;;;3.57;;
16822;SDS011;8528;49.976;11.858;2023-02-21T15:33:36;6.47;;;3.73;;
16822;SDS011;8528;49.976;11.858;2023-02-21T15:36:06;4.63;;;3.30;;
16822;SDS011;8528;49.976;11.858;2023-02-21T15:38:45;4.33;;;3.60;;
16822;SDS011;8528;49.976;11.858;2023-02-21T15:41:28;5.70;;;3.50;;
16822;SDS011;8528;49.976;11.858;2023-02-21T15:44:13;5.17;;;3.30;;
16822;SDS011;8528;49.976;11.858;2023-02-21T15:46:53;3.83;;;2.97;;
16822;SDS011;8528;49.976;11.858;2023-02-21T15:49:52;3.43;;;2.63;;
16822;SDS011;8528;49.976;11.858;2023-02-21T15:52:39;4.63;;;2.80;;
16822;SDS011;8528;49.976;11.858;2023-02-21T15:57:44;6.40;;;3.10;;
16822;SDS011;8528;49.976;11.858;2023-02-21T16:02:41;6.23;;;3.10;;
16822;SDS011;8528;49.976;11.858;2023-02-21T16:05:28;8.30;;;5.27;;
16822;SDS011;8528;49.976;11.858;2023-02-21T16:07:59;9.07;;;4.63;;
16822;SDS011;8528;49.976;11.858;2023-02-21T16:10:27;9.00;;;5.67;;
16822;SDS011;8528;49.976;11.858;2023-02-21T16:13:00;4.70;;;3.07;;
16822;SDS011;8528;49.976;11.858;2023-02-21T16:15:28;5.50;;;3.40;;
16822;SDS011;8528;49.976;11.858;2023-02-21T16:17:59;4.00;;;2.83;;
16822;SDS011;8528;49.976;11.858;2023-02-21T16:20:29;3.97;;;3.10;;
16822;SDS011;8528;49.976;11.858;2023-02-21T16:28:38;4.07;;;2.87;;
16822;SDS011;8528;49.976;11.858;2023-02-21T16:31:09;5.23;;;3.63;;
16822;SDS011;8528;49.976;11.858;2023-02-21T16:33:50;6.13;;;4.33;;
16822;SDS011;8528;49.976;11.858;2023-02-21T16:36:27;8.23;;;4.37;;
16822;SDS011;8528;49.976;11.858;2023-02-21T16:38:55;7.33;;;4.53;;
16822;SDS011;8528;49.976;11.858;2023-02-21T16:41:23;5.17;;;3.83;;
16822;SDS011;8528;49.976;11.858;2023-02-21T16:43:50;6.13;;;3.73;;
16822;SDS011;8528;49.976;11.858;2023-02-21T16:46:24;5.40;;;3.60;;
16822;SDS011;8528;49.976;11.858;2023-02-21T16:48:55;7.07;;;3.70;;
16822;SDS011;8528;49.976;11.858;2023-02-21T16:51:24;5.70;;;3.47;;
16822;SDS011;8528;49.976;11.858;2023-02-21T16:53:58;9.07;;;4.67;;
16822;SDS011;8528;49.976;11.858;2023-02-21T16:56:25;7.77;;;3.80;;
16822;SDS011;8528;49.976;11.858;2023-02-21T16:58:53;5.53;;;3.57;;
16822;SDS011;8528;49.976;11.858;2023-02-21T17:01:23;5.97;;;3.47;;
16822;SDS011;8528;49.976;11.858;2023-02-21T17:03:54;4.43;;;3.17;;
16822;SDS011;8528;49.976;11.858;2023-02-21T17:06:24;4.63;;;3.03;;
16822;SDS011;8528;49.976;11.858;2023-02-21T17:08:52;5.97;;;3.73;;
16822;SDS011;8528;49.976;11.858;2023-02-21T17:11:19;6.47;;;3.20;;
16822;SDS011;8528;49.976;11.858;2023-02-21T17:13:46;6.03;;;3.83;;
16822;SDS011;8528;49.976;11.858;2023-02-21T17:16:13;4.20;;;2.90;;
16822;SDS011;8528;49.976;11.858;2023-02-21T17:18:40;3.23;;;2.53;;
16822;SDS011;8528;49.976;11.858;2023-02-21T17:21:08;3.40;;;2.67;;
16822;SDS011;8528;49.976;11.858;2023-02-21T17:23:35;4.40;;;3.20;;
16822;SDS011;8528;49.976;11.858;2023-02-21T17:26:02;5.43;;;3.63;;
16822;SDS011;8528;49.976;11.858;2023-02-21T17:28:29;5.47;;;3.03;;
16822;SDS011;8528;49.976;11.858;2023-02-21T17:30:56;4.63;;;3.50;;
16822;SDS011;8528;49.976;11.858;2023-02-21T17:33:23;3.77;;;3.03;;
16822;SDS011;8528;49.976;11.858;2023-02-21T17:35:51;4.57;;;3.00;;
16822;SDS011;8528;49.976;11.858;2023-02-21T17:38:18;4.97;;;3.10;;
16822;SDS011;8528;49.976;11.858;2023-02-21T17:40:45;3.57;;;2.80;;
16822;SDS011;8528;49.976;11.858;2023-02-21T17:43:13;4.90;;;3.33;;
16822;SDS011;8528;49.976;11.858;2023-02-21T17:45:41;4.23;;;2.60;;
16822;SDS011;8528;49.976;11.858;2023-02-21T17:48:07;4.30;;;2.80;;
16822;SDS011;8528;49.976;11.858;2023-02-21T17:50:34;4.60;;;3.27;;
16822;SDS011;8528;49.976;11.858;2023-02-21T17:53:01;10.77;;;6.87;;
16822;SDS011;8528;49.976;11.858;2023-02-21T17:55:28;7.13;;;4.20;;
16822;SDS011;8528;49.976;11.858;2023-02-21T17:57:55;6.50;;;5.20;;
16822;SDS011;8528;49.976;11.858;2023-02-21T18:00:23;5.63;;;4.23;;
16822;SDS011;8528;49.976;11.858;2023-02-21T18:02:52;6.07;;;3.93;;
16822;SDS011;8528;49.976;11.858;2023-02-21T18:05:20;5.77;;;4.37;;
16822;SDS011;8528;49.976;11.858;2023-02-21T18:07:51;6.77;;;4.03;;
16822;SDS011;8528;49.976;11.858;2023-02-21T18:10:20;5.93;;;4.00;;
16822;SDS011;8528;49.976;11.858;2023-02-21T18:12:48;6.07;;;3.63;;
16822;SDS011;8528;49.976;11.858;2023-02-21T18:15:18;5.93;;;3.73;;
16822;SDS011;8528;49.976;11.858;2023-02-21T18:17:46;5.13;;;4.07;;
16822;SDS011;8528;49.976;11.858;2023-02-21T18:20:13;10.50;;;6.93;;